createdAt,value
2023-05-10T00:01:11.393Z,0.50
2023-05-10T00:03:38.846Z,0.70
2023-05-10T00:06:06.072Z,0.53
2023-05-10T00:08:33.399Z,0.63
2023-05-10T00:11:00.444Z,0.53
2023-05-10T00:13:27.578Z,0.70
2023-05-10T00:15:54.685Z,1.00
2023-05-10T00:18:21.974Z,0.50
2023-05-10T00:20:49.867Z,0.50
2023-05-10T00:23:17.191Z,0.67
2023-05-10T00:25:44.202Z,0.70
2023-05-10T00:28:11.429Z,0.60
2023-05-10T00:30:38.576Z,0.70
2023-05-10T00:33:05.734Z,0.90
2023-05-10T00:35:33.211Z,0.70
2023-05-10T00:38:00.436Z,0.40
2023-05-10T00:40:27.717Z,0.50
2023-05-10T00:43:01.555Z,0.67
2023-05-10T00:45:28.988Z,0.60
2023-05-10T00:47:57.138Z,0.60
2023-05-10T00:50:25.026Z,0.70
2023-05-10T00:52:52.562Z,0.73
2023-05-10T00:55:19.805Z,0.50
2023-05-10T00:57:47.110Z,0.53
2023-05-10T01:00:19.123Z,0.60
2023-05-10T01:02:47.568Z,0.80
2023-05-10T01:05:14.909Z,0.70
2023-05-10T01:07:42.328Z,0.70
2023-05-10T01:10:11.613Z,0.50
2023-05-10T01:12:42.205Z,0.70
2023-05-10T01:15:12.032Z,0.70
2023-05-10T01:17:41.453Z,0.60
2023-05-10T01:20:10.478Z,0.67
2023-05-10T01:23:10.597Z,0.60
2023-05-10T01:26:42.981Z,0.60
2023-05-10T01:29:47.047Z,0.60
2023-05-10T01:33:04.057Z,0.50
2023-05-10T01:36:00.722Z,0.80
2023-05-10T01:38:51.587Z,0.60
2023-05-10T01:41:28.398Z,0.67
2023-05-10T01:44:29.115Z,0.60
2023-05-10T01:47:25.050Z,0.60
2023-05-10T01:49:55.695Z,0.50
2023-05-10T01:52:33.995Z,0.60
2023-05-10T01:55:05.750Z,0.90
2023-05-10T01:57:38.143Z,0.60
2023-05-10T02:00:07.524Z,0.67
2023-05-10T02:02:48.982Z,0.70
2023-05-10T02:05:17.684Z,0.77
2023-05-10T02:07:45.490Z,0.60
2023-05-10T02:10:13.816Z,0.90
2023-05-10T02:12:44.455Z,0.80
2023-05-10T02:15:13.984Z,0.67
2023-05-10T02:17:42.969Z,0.70
2023-05-10T02:20:12.667Z,0.77
2023-05-10T02:22:41.390Z,0.77
2023-05-10T02:25:10.864Z,0.90
2023-05-10T02:27:39.195Z,0.80
2023-05-10T02:30:07.668Z,1.00
2023-05-10T02:32:36.494Z,1.10
2023-05-10T02:35:04.930Z,0.80
2023-05-10T02:37:33.444Z,0.90
2023-05-10T02:40:02.029Z,1.30
2023-05-10T02:42:32.404Z,0.80
2023-05-10T02:45:02.860Z,1.20
2023-05-10T02:47:30.839Z,1.00
2023-05-10T02:49:58.144Z,1.00
2023-05-10T02:52:29.210Z,0.77
2023-05-10T02:54:59.507Z,1.20
2023-05-10T02:57:32.859Z,0.80
2023-05-10T03:00:01.285Z,0.70
2023-05-10T03:02:29.168Z,0.90
2023-05-10T03:04:56.729Z,0.90
2023-05-10T03:07:24.285Z,0.90
2023-05-10T03:09:51.635Z,0.73
2023-05-10T03:12:53.878Z,1.10
2023-05-10T03:15:37.687Z,0.97
2023-05-10T03:18:17.613Z,1.00
2023-05-10T03:20:51.985Z,1.20
2023-05-10T03:23:44.179Z,0.80
2023-05-10T03:26:13.510Z,0.90
2023-05-10T03:28:42.164Z,1.20
2023-05-10T03:31:10.223Z,0.80
2023-05-10T03:33:53.343Z,0.70
2023-05-10T03:36:26.971Z,1.00
2023-05-10T03:38:55.069Z,0.83
2023-05-10T03:41:22.469Z,0.90
2023-05-10T03:43:49.768Z,0.63
2023-05-10T03:46:16.927Z,0.90
2023-05-10T03:48:44.272Z,0.77
2023-05-10T03:51:11.380Z,1.00
2023-05-10T03:53:40.023Z,1.00
2023-05-10T03:56:07.537Z,0.80
2023-05-10T03:58:35.722Z,1.10
2023-05-10T04:01:03.377Z,0.90
2023-05-10T04:03:30.992Z,1.10
2023-05-10T04:06:02.660Z,0.88
2023-05-10T04:08:30.156Z,0.90
2023-05-10T04:11:11.848Z,1.03
2023-05-10T04:13:39.290Z,0.80
2023-05-10T04:16:06.684Z,1.50
2023-05-10T04:18:33.843Z,0.90
2023-05-10T04:21:00.870Z,1.03
2023-05-10T04:23:29.056Z,0.70
2023-05-10T04:26:02.786Z,0.80
2023-05-10T04:28:30.093Z,1.00
2023-05-10T04:31:08.215Z,0.80
2023-05-10T04:33:35.675Z,0.87
2023-05-10T04:36:03.406Z,1.00
2023-05-10T04:38:30.912Z,0.70
2023-05-10T04:41:11.216Z,0.80
2023-05-10T04:43:38.947Z,0.90
2023-05-10T04:46:06.585Z,0.80
2023-05-10T04:48:33.933Z,0.70
2023-05-10T04:51:01.044Z,0.60
2023-05-10T04:53:28.462Z,0.70
2023-05-10T04:55:55.776Z,0.70
2023-05-10T04:58:22.913Z,0.67
2023-05-10T05:00:49.999Z,0.70
2023-05-10T05:03:17.202Z,0.77
2023-05-10T05:05:45.771Z,0.57
2023-05-10T05:08:12.984Z,0.70
2023-05-10T05:10:40.263Z,0.70
2023-05-10T05:13:07.756Z,0.70
2023-05-10T05:15:35.096Z,0.80
2023-05-10T05:18:02.218Z,0.80
2023-05-10T05:20:29.551Z,0.77
2023-05-10T05:22:56.590Z,0.80
2023-05-10T05:25:23.931Z,0.80
2023-05-10T05:27:51.170Z,0.93
2023-05-10T05:30:18.643Z,0.97
2023-05-10T05:32:45.943Z,0.73
2023-05-10T05:35:13.351Z,0.70
2023-05-10T05:37:40.670Z,0.70
2023-05-10T05:40:08.822Z,0.90
2023-05-10T05:42:35.982Z,0.80
2023-05-10T05:45:03.190Z,0.80
2023-05-10T05:47:30.304Z,0.93
2023-05-10T05:49:57.469Z,1.00
2023-05-10T05:52:24.597Z,1.00
2023-05-10T05:54:51.908Z,1.00
2023-05-10T05:57:18.930Z,1.10
2023-05-10T05:59:46.761Z,0.80
2023-05-10T06:02:14.060Z,0.60
2023-05-10T06:04:44.436Z,0.80
2023-05-10T06:07:12.244Z,0.60
2023-05-10T06:09:39.439Z,0.80
2023-05-10T06:12:06.651Z,0.57
2023-05-10T06:14:33.734Z,0.50
2023-05-10T06:17:01.182Z,0.50
2023-05-10T06:19:28.417Z,0.60
2023-05-10T06:21:55.654Z,0.70
2023-05-10T06:24:23.191Z,0.87
2023-05-10T06:26:51.065Z,0.80
2023-05-10T06:29:18.655Z,0.90
2023-05-10T06:31:45.788Z,0.90
2023-05-10T06:34:13.330Z,0.77
2023-05-10T06:36:40.473Z,0.57
2023-05-10T06:39:08.166Z,0.73
2023-05-10T06:41:35.265Z,0.67
2023-05-10T06:44:02.342Z,1.00
2023-05-10T06:46:29.472Z,0.80
2023-05-10T06:48:56.566Z,1.10
2023-05-10T06:51:23.788Z,0.70
2023-05-10T06:53:50.853Z,1.00
2023-05-10T06:56:17.926Z,1.00
2023-05-10T06:58:45.092Z,0.80
2023-05-10T07:01:12.317Z,1.00
2023-05-10T07:03:39.745Z,0.93
2023-05-10T07:06:13.283Z,0.93
2023-05-10T07:08:45.698Z,1.30
2023-05-10T07:11:12.783Z,1.00
2023-05-10T07:13:42.496Z,0.90
2023-05-10T07:16:09.761Z,1.20
2023-05-10T07:18:37.220Z,1.10
2023-05-10T07:21:04.744Z,1.10
2023-05-10T07:23:31.911Z,1.50
2023-05-10T07:25:59.363Z,1.20
2023-05-10T07:28:26.869Z,1.20
2023-05-10T07:30:54.303Z,1.10
2023-05-10T07:33:22.226Z,1.00
2023-05-10T07:35:49.701Z,1.10
2023-05-10T07:38:18.504Z,1.23
2023-05-10T07:40:45.936Z,1.13
2023-05-10T07:43:13.614Z,1.10
2023-05-10T07:45:41.143Z,1.40
2023-05-10T07:48:08.821Z,1.30
2023-05-10T07:50:36.284Z,1.20
2023-05-10T07:53:03.958Z,1.60
2023-05-10T07:55:31.413Z,1.20
2023-05-10T07:57:59.008Z,1.17
2023-05-10T08:00:26.793Z,1.57
2023-05-10T08:02:54.309Z,1.23
2023-05-10T08:05:22.046Z,1.43
2023-05-10T08:07:49.520Z,1.40
2023-05-10T08:10:17.940Z,1.27
2023-05-10T08:12:45.664Z,1.10
2023-05-10T08:15:13.349Z,1.17
2023-05-10T08:17:40.921Z,1.03
2023-05-10T08:20:09.046Z,1.63
2023-05-10T08:22:36.828Z,1.40
2023-05-10T08:25:04.292Z,1.40
2023-05-10T08:27:31.974Z,1.33
2023-05-10T08:29:59.462Z,1.50
2023-05-10T08:32:27.023Z,1.00
2023-05-10T08:34:54.485Z,1.13
2023-05-10T08:37:22.072Z,1.50
2023-05-10T08:39:49.516Z,1.20
2023-05-10T08:42:18.694Z,1.30
2023-05-10T08:44:48.258Z,1.53
2023-05-10T08:47:18.385Z,1.20
2023-05-10T08:49:48.980Z,1.30
2023-05-10T08:52:17.041Z,1.40
2023-05-10T08:54:44.832Z,1.53
2023-05-10T08:57:12.731Z,1.23
2023-05-10T08:59:40.993Z,1.40
2023-05-10T09:02:11.645Z,1.60
2023-05-10T09:04:39.152Z,1.10
2023-05-10T09:07:06.942Z,1.13
2023-05-10T09:09:35.110Z,1.90
2023-05-10T09:12:02.604Z,1.60
2023-05-10T09:14:30.407Z,1.23
2023-05-10T09:16:58.181Z,2.10
2023-05-10T09:19:25.617Z,1.53
2023-05-10T09:21:53.184Z,1.20
2023-05-10T09:24:20.555Z,1.87
2023-05-10T09:26:49.489Z,1.73
2023-05-10T09:29:17.813Z,1.40
2023-05-10T09:31:57.422Z,1.30
2023-05-10T09:34:31.044Z,1.50
2023-05-10T09:37:02.510Z,1.20
2023-05-10T09:39:37.006Z,1.10
2023-05-10T09:42:08.687Z,1.00
2023-05-10T09:44:36.790Z,1.30
2023-05-10T09:47:04.408Z,1.60
2023-05-10T09:49:31.912Z,1.10
2023-05-10T09:52:01.386Z,1.53
2023-05-10T09:54:29.181Z,1.10
2023-05-10T09:56:56.627Z,1.13
2023-05-10T09:59:26.426Z,1.53
2023-05-10T10:01:55.041Z,1.30
2023-05-10T10:04:22.804Z,0.90
2023-05-10T10:07:00.716Z,1.50
2023-05-10T10:09:28.688Z,1.20
2023-05-10T10:11:56.771Z,1.30
2023-05-10T10:14:27.607Z,1.00
2023-05-10T10:17:05.555Z,1.00
2023-05-10T10:19:39.179Z,1.30
2023-05-10T10:22:07.351Z,1.40
2023-05-10T10:24:35.025Z,1.07
2023-05-10T10:27:11.103Z,1.20
2023-05-10T10:30:04.654Z,1.20
2023-05-10T10:32:39.906Z,1.40
2023-05-10T10:35:08.710Z,1.10
2023-05-10T10:37:49.289Z,1.20
2023-05-10T10:40:46.181Z,1.17
2023-05-10T10:43:24.343Z,1.23
2023-05-10T10:46:10.545Z,1.27
2023-05-10T10:48:38.127Z,0.90
2023-05-10T10:51:05.521Z,1.50
2023-05-10T10:53:33.675Z,0.90
2023-05-10T10:56:11.338Z,0.80
2023-05-10T10:58:39.944Z,1.50
2023-05-10T11:01:20.760Z,0.90
2023-05-10T11:04:21.205Z,0.97
2023-05-10T11:06:48.789Z,1.10
2023-05-10T11:09:16.179Z,1.00
2023-05-10T11:11:56.408Z,0.90
2023-05-10T11:14:24.256Z,1.20
2023-05-10T11:16:52.056Z,1.37
2023-05-10T11:19:20.329Z,1.20
2023-05-10T11:21:49.471Z,1.03
2023-05-10T11:24:21.248Z,1.20
2023-05-10T11:26:51.234Z,1.23
2023-05-10T11:29:18.829Z,1.40
2023-05-10T11:31:47.721Z,1.30
2023-05-10T11:34:32.229Z,1.20
2023-05-10T11:36:59.883Z,1.10
2023-05-10T11:39:30.964Z,1.30
2023-05-10T11:41:59.130Z,1.00
2023-05-10T11:44:31.425Z,1.23
2023-05-10T11:47:02.738Z,1.30
2023-05-10T11:49:30.285Z,1.20
2023-05-10T11:52:10.032Z,1.20
2023-05-10T11:54:37.612Z,1.10
2023-05-10T11:57:05.448Z,1.30
2023-05-10T11:59:33.453Z,1.30
2023-05-10T12:02:01.174Z,1.30
2023-05-10T12:04:30.663Z,1.30
2023-05-10T12:06:58.280Z,1.33
2023-05-10T12:09:39.399Z,1.33
2023-05-10T12:12:10.899Z,1.10
2023-05-10T12:14:38.711Z,1.10
2023-05-10T12:17:06.151Z,1.00
2023-05-10T12:19:40.399Z,1.20
2023-05-10T12:22:08.032Z,1.10
2023-05-10T12:24:36.646Z,1.03
2023-05-10T12:27:09.173Z,1.40
2023-05-10T12:29:36.919Z,1.10
2023-05-10T12:32:04.350Z,1.40
2023-05-10T12:34:37.072Z,1.20
2023-05-10T12:37:05.044Z,1.40
2023-05-10T12:39:42.413Z,1.30
2023-05-10T12:42:10.010Z,1.00
2023-05-10T12:44:37.591Z,0.90
2023-05-10T12:47:04.976Z,0.93
2023-05-10T12:49:33.254Z,1.10
2023-05-10T12:52:00.770Z,1.23
2023-05-10T12:54:28.938Z,1.10
2023-05-10T12:56:56.398Z,0.97
2023-05-10T12:59:23.991Z,1.00
2023-05-10T13:01:51.362Z,1.30
2023-05-10T13:04:18.864Z,1.20
2023-05-10T13:06:46.298Z,0.90
2023-05-10T13:09:13.701Z,1.10
2023-05-10T13:11:41.250Z,1.30
2023-05-10T13:14:08.846Z,1.00
2023-05-10T13:16:36.226Z,1.03
2023-05-10T13:19:04.076Z,1.10
2023-05-10T13:21:31.546Z,1.00
2023-05-10T13:23:59.155Z,1.20
2023-05-10T13:26:26.621Z,1.10
2023-05-10T13:28:56.723Z,1.20
2023-05-10T13:31:24.279Z,1.00
2023-05-10T13:33:52.007Z,1.17
2023-05-10T13:36:19.485Z,0.97
2023-05-10T13:38:47.291Z,1.13
2023-05-10T13:41:14.683Z,1.30
2023-05-10T13:43:42.210Z,1.23
2023-05-10T13:46:09.651Z,1.30
2023-05-10T13:48:40.125Z,1.10
2023-05-10T13:51:07.522Z,1.13
2023-05-10T13:53:34.917Z,1.23
2023-05-10T13:56:03.858Z,1.00
2023-05-10T13:58:31.272Z,1.00
2023-05-10T14:00:58.958Z,0.90
2023-05-10T14:03:26.551Z,1.37
2023-05-10T14:05:54.168Z,1.33
2023-05-10T14:08:21.810Z,1.00
2023-05-10T14:10:50.012Z,0.97
2023-05-10T14:13:17.383Z,0.80
2023-05-10T14:15:45.007Z,0.90
2023-05-10T14:18:12.417Z,0.97
2023-05-10T14:20:39.824Z,0.80
2023-05-10T14:23:08.362Z,0.80
2023-05-10T14:25:37.093Z,0.80
2023-05-10T14:28:04.668Z,0.70
2023-05-10T14:30:33.672Z,0.80
2023-05-10T14:33:02.268Z,0.60
2023-05-10T14:35:31.900Z,0.77
2023-05-10T14:37:59.715Z,0.80
2023-05-10T14:40:27.300Z,0.60
2023-05-10T14:42:54.666Z,0.60
2023-05-10T14:45:22.644Z,0.93
2023-05-10T14:47:50.501Z,0.90
2023-05-10T14:50:32.276Z,0.60
2023-05-10T14:53:03.749Z,1.00
2023-05-10T14:55:31.118Z,0.77
2023-05-10T14:57:59.390Z,0.70
2023-05-10T15:00:27.159Z,0.70
2023-05-10T15:02:55.130Z,0.60
2023-05-10T15:05:23.942Z,0.70
2023-05-10T15:07:51.752Z,0.57
2023-05-10T15:10:19.611Z,0.90
2023-05-10T15:12:47.213Z,0.70
2023-05-10T15:15:14.885Z,0.70
2023-05-10T15:17:42.403Z,0.67
2023-05-10T15:20:10.111Z,1.17
2023-05-10T15:22:37.546Z,0.70
2023-05-10T15:25:05.162Z,0.90
2023-05-10T15:27:32.530Z,1.13
2023-05-10T15:30:00.730Z,0.80
2023-05-10T15:32:30.190Z,0.53
2023-05-10T15:34:58.018Z,0.60
2023-05-10T15:37:25.565Z,0.80
2023-05-10T15:39:53.139Z,0.60
2023-05-10T15:42:20.568Z,0.70
2023-05-10T15:44:51.187Z,0.70
2023-05-10T15:47:18.633Z,1.07
2023-05-10T15:49:46.273Z,0.60
2023-05-10T15:52:13.688Z,0.60
2023-05-10T15:54:41.344Z,0.97
2023-05-10T15:57:08.832Z,0.60
2023-05-10T15:59:36.427Z,0.70
2023-05-10T16:02:04.523Z,0.60
2023-05-10T16:04:32.289Z,0.63
2023-05-10T16:06:59.744Z,0.70
2023-05-10T16:09:27.294Z,0.80
2023-05-10T16:11:54.881Z,0.80
2023-05-10T16:14:24.703Z,0.70
2023-05-10T16:16:52.470Z,0.60
2023-05-10T16:19:20.097Z,0.80
2023-05-10T16:21:48.213Z,0.97
2023-05-10T16:24:15.616Z,0.70
2023-05-10T16:26:43.492Z,0.63
2023-05-10T16:29:11.245Z,0.50
2023-05-10T16:31:38.733Z,0.47
2023-05-10T16:34:06.241Z,0.40
2023-05-10T16:36:33.988Z,0.70
2023-05-10T16:39:01.535Z,0.57
2023-05-10T16:41:29.083Z,0.60
2023-05-10T16:43:57.715Z,0.60
2023-05-10T16:46:25.230Z,0.80
2023-05-10T16:48:52.684Z,1.07
2023-05-10T16:51:20.585Z,0.73
2023-05-10T16:53:48.005Z,0.70
2023-05-10T16:56:15.117Z,0.63
2023-05-10T16:58:42.847Z,0.63
2023-05-10T17:01:10.064Z,1.10
2023-05-10T17:03:37.117Z,0.60
2023-05-10T17:06:06.202Z,0.67
2023-05-10T17:08:33.627Z,0.70
2023-05-10T17:11:04.235Z,0.63
2023-05-10T17:13:32.000Z,0.63
2023-05-10T17:16:02.977Z,0.70
2023-05-10T17:18:30.469Z,0.80
2023-05-10T17:20:57.546Z,1.20
2023-05-10T17:23:24.633Z,0.80
2023-05-10T17:25:51.817Z,0.67
2023-05-10T17:28:19.081Z,0.60
2023-05-10T17:30:46.149Z,0.93
2023-05-10T17:33:13.272Z,0.70
2023-05-10T17:35:40.334Z,0.70
2023-05-10T17:38:07.433Z,0.50
2023-05-10T17:40:34.605Z,0.60
2023-05-10T17:43:01.934Z,0.70
2023-05-10T17:45:29.026Z,0.80
2023-05-10T17:47:56.264Z,0.60
2023-05-10T17:50:23.412Z,0.50
2023-05-10T17:52:50.932Z,0.80
2023-05-10T17:55:18.243Z,0.83
2023-05-10T17:57:45.487Z,0.63
2023-05-10T18:00:13.688Z,0.70
2023-05-10T18:02:41.630Z,0.50
2023-05-10T18:05:09.411Z,0.60
2023-05-10T18:07:36.628Z,0.60
2023-05-10T18:10:03.881Z,0.57
2023-05-10T18:12:31.305Z,0.40
2023-05-10T18:14:58.391Z,0.60
2023-05-10T18:17:25.709Z,0.80
2023-05-10T18:19:52.948Z,0.50
2023-05-10T18:22:20.037Z,0.50
2023-05-10T18:24:47.230Z,0.50
2023-05-10T18:27:14.394Z,0.57
2023-05-10T18:29:41.439Z,0.67
2023-05-10T18:32:08.707Z,0.70
2023-05-10T18:34:35.920Z,0.70
2023-05-10T18:37:07.918Z,0.70
2023-05-10T18:39:36.813Z,0.77
2023-05-10T18:42:07.387Z,0.90
2023-05-10T18:44:34.564Z,0.67
2023-05-10T18:47:01.668Z,0.50
2023-05-10T18:49:29.526Z,0.53
2023-05-10T18:51:56.604Z,0.57
2023-05-10T18:54:23.680Z,0.70
2023-05-10T18:56:50.710Z,0.60
2023-05-10T18:59:17.971Z,0.60
2023-05-10T19:01:45.085Z,0.70
2023-05-10T19:04:12.383Z,0.80
2023-05-10T19:06:40.166Z,0.87
2023-05-10T19:09:08.888Z,0.50
2023-05-10T19:11:36.087Z,0.50
2023-05-10T19:14:03.393Z,0.60
2023-05-10T19:16:31.191Z,0.70
2023-05-10T19:18:59.696Z,0.70
2023-05-10T19:21:27.904Z,0.60
2023-05-10T19:23:57.805Z,0.60
2023-05-10T19:26:25.356Z,0.77
2023-05-10T19:28:53.546Z,0.60
2023-05-10T19:31:22.273Z,0.40
2023-05-10T19:33:50.489Z,0.73
2023-05-10T19:36:18.217Z,0.50
2023-05-10T19:38:46.933Z,0.70
2023-05-10T19:41:14.830Z,0.70
2023-05-10T19:43:42.223Z,0.60
2023-05-10T19:46:10.308Z,0.50
2023-05-10T19:48:39.465Z,0.63
2023-05-10T19:51:09.923Z,1.07
2023-05-10T19:53:37.510Z,0.57
2023-05-10T19:56:06.474Z,0.50
2023-05-10T19:58:34.386Z,0.80
2023-05-10T20:01:01.771Z,0.60
2023-05-10T20:03:29.267Z,0.63
2023-05-10T20:05:56.433Z,0.70
2023-05-10T20:08:23.780Z,0.63
2023-05-10T20:10:50.868Z,0.67
2023-05-10T20:13:18.126Z,0.67
2023-05-10T20:15:46.904Z,0.50
2023-05-10T20:18:14.279Z,0.60
2023-05-10T20:20:41.391Z,0.83
2023-05-10T20:23:08.542Z,1.00
2023-05-10T20:25:35.732Z,0.70
2023-05-10T20:28:03.817Z,1.00
2023-05-10T20:30:31.015Z,0.90
2023-05-10T20:32:58.225Z,0.70
2023-05-10T20:35:25.384Z,0.70
2023-05-10T20:37:52.552Z,0.63
2023-05-10T20:40:19.801Z,0.50
2023-05-10T20:42:47.952Z,0.50
2023-05-10T20:45:15.546Z,0.70
2023-05-10T20:47:42.842Z,0.83
2023-05-10T20:50:10.228Z,0.80
2023-05-10T20:52:37.314Z,0.70
2023-05-10T20:55:04.975Z,0.60
2023-05-10T20:57:32.071Z,0.70
2023-05-10T20:59:59.154Z,0.70
2023-05-10T21:02:26.352Z,0.70
2023-05-10T21:04:54.488Z,0.60
2023-05-10T21:07:23.522Z,0.67
2023-05-10T21:09:50.658Z,0.70
2023-05-10T21:12:17.897Z,0.50
2023-05-10T21:14:47.008Z,0.70
2023-05-10T21:17:14.769Z,0.80
2023-05-10T21:19:41.855Z,0.87
2023-05-10T21:22:09.192Z,0.63
2023-05-10T21:24:36.213Z,0.70
2023-05-10T21:27:03.810Z,0.60
2023-05-10T21:29:30.929Z,0.80
2023-05-10T21:31:58.192Z,0.60
2023-05-10T21:34:25.309Z,0.60
2023-05-10T21:36:52.577Z,0.80
2023-05-10T21:39:19.657Z,0.50
2023-05-10T21:41:46.875Z,0.60
2023-05-10T21:44:13.968Z,0.70
2023-05-10T21:46:41.082Z,0.80
2023-05-10T21:49:08.268Z,0.50
2023-05-10T21:51:35.869Z,0.60
2023-05-10T21:54:02.982Z,0.77
2023-05-10T21:56:30.130Z,1.00
2023-05-10T21:58:57.249Z,0.77
2023-05-10T22:01:24.584Z,0.70
2023-05-10T22:03:51.679Z,0.60
2023-05-10T22:06:18.842Z,0.73
2023-05-10T22:08:46.127Z,0.50
2023-05-10T22:11:13.202Z,0.60
2023-05-10T22:13:40.360Z,0.70
2023-05-10T22:16:07.425Z,0.57
2023-05-10T22:18:34.574Z,0.90
2023-05-10T22:21:01.675Z,0.67
2023-05-10T22:23:28.918Z,0.60
2023-05-10T22:26:00.997Z,0.93
2023-05-10T22:28:28.270Z,0.70
2023-05-10T22:30:55.543Z,0.70
2023-05-10T22:33:22.804Z,0.60
2023-05-10T22:35:49.990Z,0.60
2023-05-10T22:38:17.166Z,0.63
2023-05-10T22:40:44.199Z,0.50
2023-05-10T22:43:11.995Z,0.77
2023-05-10T22:45:39.452Z,0.80
2023-05-10T22:48:08.541Z,0.70
2023-05-10T22:50:37.206Z,0.70
2023-05-10T22:53:04.370Z,0.70
2023-05-10T22:55:31.444Z,0.57
2023-05-10T22:57:59.029Z,0.50
2023-05-10T23:00:26.380Z,0.77
2023-05-10T23:02:54.571Z,0.67
2023-05-10T23:05:21.810Z,0.80
2023-05-10T23:07:53.229Z,0.90
2023-05-10T23:10:20.870Z,0.60
2023-05-10T23:12:48.227Z,0.70
2023-05-10T23:15:15.704Z,0.53
2023-05-10T23:17:42.782Z,0.67
2023-05-10T23:20:10.842Z,0.70
2023-05-10T23:22:37.899Z,0.70
2023-05-10T23:25:05.893Z,0.60
2023-05-10T23:27:33.071Z,0.77
2023-05-10T23:30:00.285Z,0.70
2023-05-10T23:32:27.379Z,0.50
2023-05-10T23:34:54.496Z,0.50
2023-05-10T23:37:21.755Z,0.40
2023-05-10T23:39:48.951Z,0.60
2023-05-10T23:42:16.025Z,0.50
2023-05-10T23:44:43.082Z,0.57
2023-05-10T23:47:10.110Z,0.63
2023-05-10T23:49:38.152Z,0.57
2023-05-10T23:52:05.175Z,0.73
2023-05-10T23:54:32.341Z,0.80
2023-05-10T23:56:59.425Z,0.53
2023-05-10T23:59:26.570Z,0.40
